Time,TemperatureF,DewpointF,PressureIn,WindDirection,WindDirectionDegrees,WindSpeedMPH,WindSpeedGustMPH,Humidity,HourlyPrecipIn,Conditions,Clouds,dailyrainin,SoftwareType,DateUTC
2013-04-19 00:01:00,37.8,37.8,28.32,NNW,332,7.6,7.6,100,0.00,,---,0.00,VWS V14.01,2013-04-19 05:01:00,
2013-04-19 00:06:00,37.6,37.6,28.32,WNW,282,7.6,12.3,100,0.00,,---,0.00,VWS V14.01,2013-04-19 05:06:00,
2013-04-19 00:11:00,37.6,37.6,28.32,SW,235,6.3,8.3,100,0.00,,---,0.00,VWS V14.01,2013-04-19 05:11:00,
2013-04-19 00:16:00,37.6,37.6,28.29,WSW,247,7.2,8.1,100,0.00,,---,0.00,VWS V14.01,2013-04-19 05:16:00,
2013-04-19 00:21:00,37.4,37.4,28.29,WSW,253,7.2,7.2,100,0.00,,---,0.00,VWS V14.01,2013-04-19 05:21:00,
2013-04-19 00:26:00,37.4,37.4,28.29,West,279,3.6,5.8,100,0.00,,---,0.00,VWS V14.01,2013-04-19 05:26:00,
2013-04-19 00:31:00,37.0,37.0,28.29,SW,216,8.3,11.4,100,0.00,,---,0.00,VWS V14.01,2013-04-19 05:31:00,
2013-04-19 00:36:00,37.0,37.0,28.29,WSW,254,6.3,10.5,100,0.00,,---,0.00,VWS V14.01,2013-04-19 05:36:00,
2013-04-19 00:41:00,37.0,37.0,28.29,West,259,3.6,10.5,100,0.00,,---,0.00,VWS V14.01,2013-04-19 05:41:00,
2013-04-19 00:45:00,36.9,36.9,28.29,SW,226,3.1,7.6,100,0.00,,---,0.00,VWS V14.01,2013-04-19 05:45:00,
2013-04-19 00:50:00,36.7,36.7,28.29,SW,217,7.6,9.6,100,0.00,,---,0.00,VWS V14.01,2013-04-19 05:50:00,
2013-04-19 00:55:00,36.5,36.5,28.29,SW,230,10.1,10.1,100,0.00,,---,0.00,VWS V14.01,2013-04-19 05:55:00,
2013-04-19 01:00:00,36.5,36.5,28.29,WNW,302,4.9,6.7,100,0.00,,---,0.00,VWS V14.01,2013-04-19 06:00:00,
2013-04-19 01:05:00,36.1,36.1,28.29,West,272,4.0,10.1,100,0.00,,---,0.00,VWS V14.01,2013-04-19 06:05:00,
2013-04-19 01:10:00,36.1,36.1,28.29,WSW,249,10.1,10.1,100,0.00,,---,0.00,VWS V14.01,2013-04-19 06:10:00,
2013-04-19 01:15:00,36.0,36.0,28.29,West,271,8.3,8.3,100,0.00,,---,0.00,VWS V14.01,2013-04-19 06:15:00,
2013-04-19 01:20:00,36.0,36.0,28.29,West,271,7.6,7.6,100,0.00,,---,0.00,VWS V14.01,2013-04-19 06:20:00,
2013-04-19 01:25:00,35.8,35.8,28.29,WSW,255,5.8,7.6,100,0.00,,---,0.00,VWS V14.01,2013-04-19 06:25:00,
2013-04-19 01:30:00,35.8,35.8,28.29,West,269,2.7,4.0,100,0.00,,---,0.00,VWS V14.01,2013-04-19 06:30:00,
2013-04-19 01:35:00,35.6,35.6,28.29,West,264,11.0,11.0,100,0.00,,---,0.00,VWS V14.01,2013-04-19 06:35:00,
2013-04-19 01:40:00,35.6,35.6,28.29,West,259,10.5,10.5,100,0.00,,---,0.00,VWS V14.01,2013-04-19 06:40:00,
2013-04-19 01:45:00,35.6,35.6,28.26,SSW,213,5.8,6.7,100,0.00,,---,0.00,VWS V14.01,2013-04-19 06:45:00,
2013-04-19 01:50:00,35.4,35.4,28.26,WSW,249,5.4,8.3,100,0.00,,---,0.00,VWS V14.01,2013-04-19 06:50:00,
2013-04-19 01:55:00,35.2,35.2,28.26,West,276,5.8,6.3,100,0.00,,---,0.00,VWS V14.01,2013-04-19 06:55:00,
2013-04-19 02:00:00,35.1,35.1,28.26,SW,236,5.4,5.4,100,0.00,,---,0.00,VWS V14.01,2013-04-19 07:00:00,
2013-04-19 02:05:00,34.9,34.9,28.26,WSW,249,4.0,7.2,100,0.00,,---,0.00,VWS V14.01,2013-04-19 07:05:00,
2013-04-19 02:10:00,34.9,34.9,28.26,West,268,10.5,10.5,100,0.00,,---,0.00,VWS V14.01,2013-04-19 07:10:00,
2013-04-19 02:15:00,34.7,34.7,28.29,West,261,6.3,6.3,100,0.00,,---,0.00,VWS V14.01,2013-04-19 07:15:00,
2013-04-19 02:20:00,34.5,34.5,28.29,SW,230,4.0,7.6,100,0.00,,---,0.00,VWS V14.01,2013-04-19 07:20:00,
2013-04-19 02:25:00,34.5,34.5,28.29,WSW,258,4.0,8.3,100,0.00,,---,0.00,VWS V14.01,2013-04-19 07:25:00,
2013-04-19 02:30:00,34.3,34.3,28.26,West,259,5.4,5.4,100,0.00,,---,0.00,VWS V14.01,2013-04-19 07:30:00,
2013-04-19 02:35:00,34.2,34.2,28.26,SW,219,4.9,10.5,100,0.00,,---,0.00,VWS V14.01,2013-04-19 07:35:00,
2013-04-19 02:40:00,34.0,34.0,28.26,West,265,5.8,7.6,100,0.00,,---,0.00,VWS V14.01,2013-04-19 07:40:00,
2013-04-19 02:45:00,34.0,34.0,28.26,WSW,242,5.8,10.1,100,0.00,,---,0.00,VWS V14.01,2013-04-19 07:45:00,
2013-04-19 02:50:00,34.0,34.0,28.26,WSW,257,5.8,8.1,100,0.00,,---,0.00,VWS V14.01,2013-04-19 07:50:00,
2013-04-19 02:55:00,33.8,33.8,28.26,West,277,3.1,5.8,100,0.00,,---,0.00,VWS V14.01,2013-04-19 07:55:00,
2013-04-19 03:00:00,33.6,33.6,28.26,SW,233,7.2,8.3,100,0.00,,---,0.00,VWS V14.01,2013-04-19 08:00:00,
2013-04-19 03:05:00,33.3,33.3,28.26,WSW,245,9.2,9.2,100,0.00,,---,0.00,VWS V14.01,2013-04-19 08:05:00,
2013-04-19 03:10:00,33.3,33.3,28.26,West,270,11.4,11.4,100,0.00,,---,0.00,VWS V14.01,2013-04-19 08:10:00,
2013-04-19 03:15:00,33.1,33.1,28.26,West,269,5.8,6.3,100,0.00,,---,0.00,VWS V14.01,2013-04-19 08:15:00,
2013-04-19 03:20:00,33.1,33.1,28.26,SW,230,4.9,5.8,100,0.00,,---,0.00,VWS V14.01,2013-04-19 08:20:00,
2013-04-19 03:25:00,33.1,33.1,28.26,WSW,241,3.1,5.4,100,0.00,,---,0.00,VWS V14.01,2013-04-19 08:25:00,
2013-04-19 03:30:00,33.1,33.1,28.26,WSW,257,4.0,5.4,100,0.00,,---,0.00,VWS V14.01,2013-04-19 08:30:00,
2013-04-19 03:35:00,33.1,33.1,28.26,SW,232,4.9,8.1,100,0.00,,---,0.00,VWS V14.01,2013-04-19 08:35:00,
2013-04-19 03:40:00,32.9,32.9,28.26,WNW,300,6.3,7.6,100,0.00,,---,0.00,VWS V14.01,2013-04-19 08:40:00,
2013-04-19 03:45:00,32.9,32.9,28.26,WSW,257,8.7,10.5,100,0.00,,---,0.00,VWS V14.01,2013-04-19 08:45:00,
2013-04-19 03:50:00,32.7,32.7,28.26,SW,233,3.1,5.8,100,0.00,,---,0.00,VWS V14.01,2013-04-19 08:50:00,
2013-04-19 03:55:00,32.7,32.7,28.26,SW,233,11.0,11.0,100,0.00,,---,0.00,VWS V14.01,2013-04-19 08:55:00,
2013-04-19 04:00:00,32.5,32.5,28.26,SW,226,3.6,5.4,100,0.00,,---,0.00,VWS V14.01,2013-04-19 09:00:00,
2013-04-19 04:05:00,32.5,32.5,28.26,SW,226,4.0,7.6,100,0.00,,---,0.00,VWS V14.01,2013-04-19 09:05:00,
2013-04-19 04:10:00,32.5,32.5,28.26,West,272,3.1,5.4,100,0.00,,---,0.00,VWS V14.01,2013-04-19 09:10:00,
2013-04-19 04:15:00,32.5,32.5,28.26,WSW,241,8.7,11.9,100,0.00,,---,0.00,VWS V14.01,2013-04-19 09:15:00,
2013-04-19 04:20:00,32.5,32.5,28.26,West,275,3.1,4.0,100,0.00,,---,0.00,VWS V14.01,2013-04-19 09:20:00,
2013-04-19 04:25:00,32.5,32.5,28.26,WSW,244,4.0,4.0,100,0.00,,---,0.00,VWS V14.01,2013-04-19 09:25:00,
2013-04-19 04:30:00,32.5,32.5,28.26,NNW,327,6.3,6.3,100,0.00,,---,0.00,VWS V14.01,2013-04-19 09:30:00,
2013-04-19 04:35:00,32.5,32.5,28.26,WSW,249,3.1,5.8,100,0.00,,---,0.00,VWS V14.01,2013-04-19 09:35:00,
2013-04-19 04:40:00,32.4,32.4,28.26,West,265,5.8,8.7,100,0.00,,---,0.00,VWS V14.01,2013-04-19 09:40:00,
2013-04-19 04:45:00,32.4,32.4,28.26,South,183,5.8,6.3,100,0.00,,---,0.00,VWS V14.01,2013-04-19 09:45:00,
2013-04-19 04:50:00,32.4,32.4,28.26,SW,233,6.3,6.3,100,0.00,,---,0.00,VWS V14.01,2013-04-19 09:50:00,
2013-04-19 04:55:00,32.4,32.4,28.26,West,280,3.1,3.1,100,0.00,,---,0.00,VWS V14.01,2013-04-19 09:55:00,
2013-04-19 05:00:00,32.4,32.4,28.26,WSW,253,6.3,7.6,100,0.00,,---,0.00,VWS V14.01,2013-04-19 10:00:00,
2013-04-19 05:05:00,32.4,32.4,28.26,WSW,253,4.0,4.0,100,0.00,,---,0.00,VWS V14.01,2013-04-19 10:05:00,
2013-04-19 05:10:00,32.2,32.2,28.26,SSW,212,10.1,11.0,100,0.00,,---,0.00,VWS V14.01,2013-04-19 10:10:00,
2013-04-19 05:15:00,32.2,32.2,28.23,West,266,7.6,7.6,100,0.00,,---,0.00,VWS V14.01,2013-04-19 10:15:00,
2013-04-19 05:20:00,32.2,32.2,28.23,WNW,285,5.4,6.3,100,0.00,,---,0.00,VWS V14.01,2013-04-19 10:20:00,
2013-04-19 05:25:00,32.2,32.2,28.23,SSW,199,8.3,9.6,100,0.00,,---,0.00,VWS V14.01,2013-04-19 10:25:00,
2013-04-19 05:30:00,32.2,32.2,28.23,SSW,213,7.6,7.6,100,0.00,,---,0.00,VWS V14.01,2013-04-19 10:30:00,
2013-04-19 05:35:00,32.2,32.2,28.23,West,268,2.7,3.6,100,0.00,,---,0.00,VWS V14.01,2013-04-19 10:35:00,
2013-04-19 05:40:00,32.2,32.2,28.23,WNW,285,7.6,12.3,100,0.00,,---,0.00,VWS V14.01,2013-04-19 10:40:00,
2013-04-19 05:45:00,32.0,32.0,28.23,WSW,246,5.4,11.0,100,0.00,,---,0.00,VWS V14.01,2013-04-19 10:45:00,
2013-04-19 05:50:00,32.0,32.0,28.23,West,262,5.8,10.1,100,0.00,,---,0.00,VWS V14.01,2013-04-19 10:50:00,
2013-04-19 05:55:00,32.0,32.0,28.23,WNW,297,9.2,10.5,100,0.00,,---,0.00,VWS V14.01,2013-04-19 10:55:00,
2013-04-19 06:00:00,32.0,32.0,28.26,West,273,8.1,8.1,100,0.00,,---,0.00,VWS V14.01,2013-04-19 11:00:00,
2013-04-19 06:05:00,31.8,31.8,28.26,WSW,243,5.8,5.8,100,0.00,,---,0.00,VWS V14.01,2013-04-19 11:05:00,
2013-04-19 06:10:00,32.0,32.0,28.26,SW,233,8.7,8.7,100,0.00,,---,0.00,VWS V14.01,2013-04-19 11:10:00,
2013-04-19 06:15:00,31.8,31.8,28.26,WNW,299,5.8,5.8,100,0.00,,---,0.00,VWS V14.01,2013-04-19 11:15:00,
2013-04-19 06:20:00,31.8,31.8,28.26,West,274,4.0,5.8,100,0.00,,---,0.00,VWS V14.01,2013-04-19 11:20:00,
2013-04-19 06:25:00,31.8,31.8,28.26,SW,223,4.0,11.0,100,0.00,,---,0.00,VWS V14.01,2013-04-19 11:25:00,
2013-04-19 06:30:00,32.0,32.0,28.26,WNW,302,5.8,5.8,100,0.00,,---,0.00,VWS V14.01,2013-04-19 11:30:00,
2013-04-19 06:35:00,32.0,32.0,28.26,NW,319,4.0,9.6,100,0.00,,---,0.00,VWS V14.01,2013-04-19 11:35:00,
2013-04-19 06:40:00,32.0,32.0,28.26,NW,310,6.3,8.7,100,0.00,,---,0.00,VWS V14.01,2013-04-19 11:40:00,
2013-04-19 06:45:00,32.0,32.0,28.26,SW,214,6.3,8.1,100,0.00,,---,0.00,VWS V14.01,2013-04-19 11:45:00,
2013-04-19 06:49:00,32.0,32.0,28.26,WNW,290,8.1,8.1,100,0.00,,---,0.00,VWS V14.01,2013-04-19 11:49:00,
2013-04-19 06:54:00,32.0,32.0,28.26,WSW,254,5.4,6.3,100,0.00,,---,0.00,VWS V14.01,2013-04-19 11:54:00,
2013-04-19 06:59:00,32.2,32.2,28.26,WNW,283,8.1,13.2,100,0.00,,---,0.00,VWS V14.01,2013-04-19 11:59:00,
2013-04-19 07:04:00,32.2,32.2,28.26,WNW,285,8.1,8.1,100,0.00,,---,0.00,VWS V14.01,2013-04-19 12:04:00,
2013-04-19 07:09:00,32.2,32.2,28.26,WNW,291,8.1,8.1,100,0.00,,---,0.00,VWS V14.01,2013-04-19 12:09:00,
2013-04-19 07:14:00,32.0,32.0,28.26,WNW,291,4.9,8.1,100,0.00,,---,0.00,VWS V14.01,2013-04-19 12:14:00,
2013-04-19 07:19:00,32.0,32.0,28.26,West,264,5.8,5.8,100,0.00,,---,0.00,VWS V14.01,2013-04-19 12:19:00,
2013-04-19 07:24:00,32.0,32.0,28.26,WSW,239,7.6,11.4,100,0.00,,---,0.00,VWS V14.01,2013-04-19 12:24:00,
2013-04-19 07:29:00,32.2,32.2,28.26,WSW,244,8.1,8.3,100,0.00,,---,0.00,VWS V14.01,2013-04-19 12:29:00,
2013-04-19 07:34:00,32.2,32.2,28.26,WSW,238,8.1,10.1,100,0.00,,---,0.00,VWS V14.01,2013-04-19 12:34:00,
2013-04-19 07:39:00,32.2,32.2,28.26,NW,306,8.3,13.2,100,0.00,,---,0.00,VWS V14.01,2013-04-19 12:39:00,
2013-04-19 07:44:00,32.2,32.2,28.26,West,261,11.0,13.2,100,0.00,,---,0.00,VWS V14.01,2013-04-19 12:44:00,
2013-04-19 07:49:00,32.2,32.2,28.26,West,281,8.3,9.2,100,0.00,,---,0.00,VWS V14.01,2013-04-19 12:49:00,
2013-04-19 07:54:00,32.4,32.4,28.26,West,280,8.7,10.5,100,0.00,,---,0.00,VWS V14.01,2013-04-19 12:54:00,
2013-04-19 07:59:00,32.4,32.4,28.26,WNW,296,8.1,10.5,100,0.00,,---,0.00,VWS V14.01,2013-04-19 12:59:00,
2013-04-19 08:04:00,32.4,32.4,28.26,SW,231,11.0,13.2,100,0.00,,---,0.00,VWS V14.01,2013-04-19 13:04:00,
2013-04-19 08:09:00,32.4,32.4,28.26,West,275,3.6,12.8,100,0.00,,---,0.00,VWS V14.01,2013-04-19 13:09:00,
2013-04-19 08:14:00,32.4,32.4,28.26,WNW,283,11.0,11.0,100,0.00,,---,0.00,VWS V14.01,2013-04-19 13:14:00,
2013-04-19 08:19:00,32.5,32.5,28.26,West,260,5.4,10.1,100,0.00,,---,0.00,VWS V14.01,2013-04-19 13:19:00,
2013-04-19 08:24:00,32.5,32.5,28.26,WSW,250,10.1,10.1,100,0.00,,---,0.00,VWS V14.01,2013-04-19 13:24:00,
2013-04-19 08:29:00,32.4,32.4,28.26,NNW,346,8.1,10.5,100,0.00,,---,0.00,VWS V14.01,2013-04-19 13:29:00,
2013-04-19 08:34:00,32.4,32.4,28.29,NW,306,8.7,13.2,100,0.00,,---,0.00,VWS V14.01,2013-04-19 13:34:00,
2013-04-19 08:39:00,32.5,32.5,28.29,NW,310,5.8,12.3,100,0.00,,---,0.00,VWS V14.01,2013-04-19 13:39:00,
2013-04-19 08:44:00,32.5,32.5,28.29,North,0,8.1,10.1,100,0.00,,---,0.00,VWS V14.01,2013-04-19 13:44:00,
2013-04-19 08:49:00,32.5,32.5,28.29,NW,314,7.6,7.6,100,0.00,,---,0.00,VWS V14.01,2013-04-19 13:49:00,
2013-04-19 08:54:00,32.7,32.7,28.29,NW,326,10.5,13.2,100,0.00,,---,0.00,VWS V14.01,2013-04-19 13:54:00,
2013-04-19 08:59:00,32.5,32.5,28.29,NNW,333,12.3,24.2,100,0.00,,---,0.00,VWS V14.01,2013-04-19 13:59:00,
2013-04-19 09:04:00,32.5,32.5,28.29,NNE,23,3.6,10.1,100,0.00,,---,0.00,VWS V14.01,2013-04-19 14:04:00,
2013-04-19 09:09:00,32.5,32.5,28.29,NW,320,10.5,13.2,100,0.00,,---,0.00,VWS V14.01,2013-04-19 14:09:00,
2013-04-19 09:14:00,32.4,32.4,28.29,WNW,295,5.8,15.0,100,0.00,,---,0.00,VWS V14.01,2013-04-19 14:14:00,
2013-04-19 09:19:00,32.4,32.4,28.32,NNW,341,3.6,8.1,100,0.00,,---,0.00,VWS V14.01,2013-04-19 14:19:00,
2013-04-19 09:24:00,32.2,32.2,28.32,NNW,334,17.4,17.4,100,0.00,,---,0.00,VWS V14.01,2013-04-19 14:24:00,
2013-04-19 09:29:00,32.2,32.2,28.32,North,357,11.9,11.9,100,0.00,,---,0.00,VWS V14.01,2013-04-19 14:29:00,
2013-04-19 09:34:00,32.2,32.2,28.32,NW,317,14.1,14.1,100,0.00,,---,0.00,VWS V14.01,2013-04-19 14:34:00,
2013-04-19 09:39:00,32.2,32.2,28.32,North,357,20.6,20.6,100,0.00,,---,0.00,VWS V14.01,2013-04-19 14:39:00,
2013-04-19 09:44:00,32.5,32.5,28.32,North,353,8.7,8.7,100,0.00,,---,0.00,VWS V14.01,2013-04-19 14:44:00,
2013-04-19 09:49:00,32.7,32.5,28.32,WNW,286,5.4,13.2,99,0.00,,---,0.00,VWS V14.01,2013-04-19 14:49:00,
2013-04-19 09:54:00,32.7,32.7,28.32,NNW,342,7.6,10.1,100,0.00,,---,0.00,VWS V14.01,2013-04-19 14:54:00,
2013-04-19 09:59:00,32.5,32.5,28.32,North,353,10.5,11.0,100,0.00,,---,0.00,VWS V14.01,2013-04-19 14:59:00,
2013-04-19 10:04:00,32.5,32.3,28.35,NW,304,5.4,7.6,99,0.00,,---,0.00,VWS V14.01,2013-04-19 15:04:00,
2013-04-19 10:09:00,32.4,32.4,28.35,NW,310,8.1,13.2,100,0.00,,---,0.00,VWS V14.01,2013-04-19 15:09:00,
2013-04-19 10:14:00,32.5,32.3,28.35,WNW,290,8.1,8.1,99,0.00,,---,0.00,VWS V14.01,2013-04-19 15:14:00,
2013-04-19 10:19:00,32.5,31.5,28.35,NNW,334,15.9,15.9,96,0.00,,---,0.00,VWS V14.01,2013-04-19 15:19:00,
2013-04-19 10:24:00,32.5,32.3,28.35,NW,312,13.2,13.2,99,0.00,,---,0.00,VWS V14.01,2013-04-19 15:24:00,
2013-04-19 10:29:00,32.7,30.9,28.35,NNW,338,10.1,17.4,93,0.00,,---,0.00,VWS V14.01,2013-04-19 15:29:00,
2013-04-19 10:34:00,32.7,30.9,28.35,WSW,247,5.8,8.7,93,0.00,,---,0.00,VWS V14.01,2013-04-19 15:34:00,
2013-04-19 10:39:00,32.9,31.1,28.35,NW,311,8.1,8.1,93,0.00,,---,0.00,VWS V14.01,2013-04-19 15:39:00,
2013-04-19 10:44:00,32.7,30.1,28.35,NNW,339,8.7,8.7,90,0.00,,---,0.00,VWS V14.01,2013-04-19 15:44:00,
2013-04-19 10:49:00,32.9,25.9,28.38,NW,312,12.8,12.8,75,0.00,,---,0.00,VWS V14.01,2013-04-19 15:49:00,
2013-04-19 10:54:00,33.3,26.2,28.38,NW,308,8.3,8.3,75,0.00,,---,0.00,VWS V14.01,2013-04-19 15:54:00,
2013-04-19 10:59:00,33.4,26.4,28.38,NNW,342,10.5,13.2,75,0.00,,---,0.00,VWS V14.01,2013-04-19 15:59:00,
2013-04-19 11:04:00,33.6,24.5,28.38,WSW,252,10.1,10.1,69,0.00,,---,0.00,VWS V14.01,2013-04-19 16:04:00,
2013-04-19 11:09:00,33.6,24.5,28.38,NW,307,11.0,21.9,69,0.00,,---,0.00,VWS V14.01,2013-04-19 16:09:00,
2013-04-19 11:14:00,33.3,24.2,28.38,West,271,5.4,11.0,69,0.00,,---,0.00,VWS V14.01,2013-04-19 16:14:00,
2013-04-19 11:19:00,33.3,24.2,28.41,NW,313,13.2,13.2,69,0.00,,---,0.00,VWS V14.01,2013-04-19 16:19:00,
2013-04-19 11:24:00,33.3,20.9,28.41,NW,320,8.7,8.7,60,0.00,,---,0.00,VWS V14.01,2013-04-19 16:24:00,
2013-04-19 11:29:00,33.8,21.4,28.41,NNW,335,15.9,18.3,60,0.00,,---,0.00,VWS V14.01,2013-04-19 16:29:00,
2013-04-19 11:34:00,33.8,21.4,28.41,WNW,301,5.8,13.2,60,0.00,,---,0.00,VWS V14.01,2013-04-19 16:34:00,
2013-04-19 11:39:00,34.2,21.7,28.41,WNW,285,9.6,9.6,60,0.00,,---,0.00,VWS V14.01,2013-04-19 16:39:00,
2013-04-19 11:44:00,34.5,22.1,28.41,North,0,8.7,8.7,60,0.00,,---,0.00,VWS V14.01,2013-04-19 16:44:00,
2013-04-19 11:49:00,34.5,22.1,28.41,NNW,334,13.2,16.3,60,0.00,,---,0.00,VWS V14.01,2013-04-19 16:49:00,
2013-04-19 11:54:00,34.3,21.9,28.41,NNW,333,8.1,10.1,60,0.00,,---,0.00,VWS V14.01,2013-04-19 16:54:00,
2013-04-19 11:59:00,34.3,21.9,28.41,North,0,11.0,13.6,60,0.00,,---,0.00,VWS V14.01,2013-04-19 16:59:00,
2013-04-19 12:04:00,34.2,21.7,28.41,NNW,345,15.4,15.4,60,0.00,,---,0.00,VWS V14.01,2013-04-19 17:04:00,
2013-04-19 12:09:00,34.0,21.6,28.41,WSW,249,6.3,10.1,60,0.00,,---,0.00,VWS V14.01,2013-04-19 17:09:00,
2013-04-19 12:14:00,35.1,22.6,28.41,NNE,30,15.4,17.4,60,0.00,,---,0.00,VWS V14.01,2013-04-19 17:14:00,
2013-04-19 12:19:00,34.2,21.7,28.44,NW,313,13.2,17.4,60,0.00,,---,0.00,VWS V14.01,2013-04-19 17:19:00,
2013-04-19 12:24:00,33.4,21.1,28.44,West,265,8.3,12.8,60,0.00,,---,0.00,VWS V14.01,2013-04-19 17:24:00,
2013-04-19 12:29:00,34.5,22.1,28.44,NW,315,13.2,13.2,60,0.00,,---,0.00,VWS V14.01,2013-04-19 17:29:00,
2013-04-19 12:34:00,35.2,22.8,28.44,NNW,327,8.3,19.7,60,0.00,,---,0.00,VWS V14.01,2013-04-19 17:34:00,
2013-04-19 12:39:00,35.6,21.9,28.44,West,280,12.3,12.8,57,0.00,,---,0.00,VWS V14.01,2013-04-19 17:39:00,
2013-04-19 12:44:00,37.2,23.4,28.44,WNW,290,16.8,16.8,57,0.00,,---,0.00,VWS V14.01,2013-04-19 17:44:00,
2013-04-19 12:49:00,36.3,22.6,28.44,WNW,300,13.6,16.3,57,0.00,,---,0.00,VWS V14.01,2013-04-19 17:49:00,
2013-04-19 12:54:00,35.1,22.6,28.44,NW,326,12.8,12.8,60,0.00,,---,0.00,VWS V14.01,2013-04-19 17:54:00,
2013-04-19 12:58:00,34.9,22.4,28.44,WNW,295,5.8,10.5,60,0.00,,---,0.00,VWS V14.01,2013-04-19 17:58:00,
2013-04-19 13:03:00,36.3,22.6,28.44,NW,314,10.1,14.1,57,0.00,,---,0.00,VWS V14.01,2013-04-19 18:03:00,
2013-04-19 13:08:00,37.4,23.6,28.44,WNW,295,13.2,14.5,57,0.00,,---,0.00,VWS V14.01,2013-04-19 18:08:00,
2013-04-19 13:13:00,37.9,24.1,28.44,NW,313,15.4,15.4,57,0.00,,---,0.00,VWS V14.01,2013-04-19 18:13:00,
2013-04-19 13:18:00,37.9,24.1,28.44,West,265,12.3,13.2,57,0.00,,---,0.00,VWS V14.01,2013-04-19 18:18:00,
2013-04-19 13:23:00,37.8,23.9,28.44,NW,325,18.3,22.8,57,0.00,,---,0.00,VWS V14.01,2013-04-19 18:23:00,
2013-04-19 13:28:00,34.3,32.5,28.44,WNW,293,14.5,14.5,93,0.00,,---,0.00,VWS V14.01,2013-04-19 18:28:00,
2013-04-19 13:33:00,34.9,33.9,28.47,WNW,290,6.3,8.1,96,0.00,,---,0.00,VWS V14.01,2013-04-19 18:33:00,
2013-04-19 13:38:00,36.1,25.9,28.47,WSW,256,7.2,7.2,66,0.00,,---,0.00,VWS V14.01,2013-04-19 18:38:00,
2013-04-19 13:43:00,37.6,23.7,28.47,WNW,291,6.3,10.5,57,0.00,,---,0.00,VWS V14.01,2013-04-19 18:43:00,
2013-04-19 13:48:00,37.6,23.7,28.47,NNW,330,22.8,22.8,57,0.00,,---,0.00,VWS V14.01,2013-04-19 18:48:00,
2013-04-19 13:53:00,35.8,22.0,28.47,NW,307,11.0,13.2,57,0.00,,---,0.00,VWS V14.01,2013-04-19 18:53:00,
2013-04-19 13:58:00,35.4,25.2,28.47,NNW,337,8.1,13.2,66,0.00,,---,0.00,VWS V14.01,2013-04-19 18:58:00,
2013-04-19 14:03:00,35.2,22.8,28.50,NNW,330,5.8,8.3,60,0.00,,---,0.00,VWS V14.01,2013-04-19 19:03:00,
2013-04-19 14:08:00,35.6,21.9,28.50,West,266,5.8,10.5,57,0.00,,---,0.00,VWS V14.01,2013-04-19 19:08:00,
2013-04-19 14:13:00,35.1,22.6,28.50,WNW,297,3.6,10.5,60,0.00,,---,0.00,VWS V14.01,2013-04-19 19:13:00,
2013-04-19 14:18:00,34.9,22.4,28.50,West,272,8.3,9.2,60,0.00,,---,0.00,VWS V14.01,2013-04-19 19:18:00,
2013-04-19 14:23:00,34.5,22.1,28.50,North,353,16.8,16.8,60,0.00,,---,0.00,VWS V14.01,2013-04-19 19:23:00,
2013-04-19 14:28:00,34.2,27.1,28.50,North,10,8.1,8.7,75,0.00,,---,0.00,VWS V14.01,2013-04-19 19:28:00,
2013-04-19 14:33:00,35.8,25.5,28.50,WNW,303,8.3,10.1,66,0.00,,---,0.00,VWS V14.01,2013-04-19 19:33:00,
2013-04-19 14:38:00,36.3,22.6,28.50,NW,313,15.0,15.0,57,0.00,,---,0.00,VWS V14.01,2013-04-19 19:38:00,
2013-04-19 14:43:00,35.4,22.9,28.50,North,6,9.6,16.3,60,0.00,,---,0.00,VWS V14.01,2013-04-19 19:43:00,
2013-04-19 14:48:00,35.6,21.9,28.53,NW,315,15.9,15.9,57,0.00,,---,0.00,VWS V14.01,2013-04-19 19:48:00,
2013-04-19 14:53:00,35.6,25.4,28.53,NNW,343,12.3,12.3,66,0.00,,---,0.00,VWS V14.01,2013-04-19 19:53:00,
2013-04-19 14:58:00,35.8,22.0,28.53,NNW,335,6.3,9.6,57,0.00,,---,0.00,VWS V14.01,2013-04-19 19:58:00,
2013-04-19 15:03:00,35.8,22.0,28.53,WNW,288,12.8,21.9,57,0.00,,---,0.00,VWS V14.01,2013-04-19 20:03:00,
2013-04-19 15:08:00,35.4,22.9,28.53,WNW,285,5.4,12.8,60,0.00,,---,0.00,VWS V14.01,2013-04-19 20:08:00,
2013-04-19 15:13:00,35.8,25.5,28.53,NNW,327,7.6,8.7,66,0.00,,---,0.00,VWS V14.01,2013-04-19 20:13:00,
2013-04-19 15:18:00,36.7,22.9,28.53,NNW,337,10.5,11.0,57,0.00,,---,0.00,VWS V14.01,2013-04-19 20:18:00,
2013-04-19 15:23:00,36.7,22.9,28.53,WNW,297,13.6,13.6,57,0.00,,---,0.00,VWS V14.01,2013-04-19 20:23:00,
2013-04-19 15:28:00,35.8,22.0,28.53,NNW,342,15.4,15.4,57,0.00,,---,0.00,VWS V14.01,2013-04-19 20:28:00,
2013-04-19 15:33:00,34.5,22.1,28.56,NW,314,10.5,10.5,60,0.00,,---,0.00,VWS V14.01,2013-04-19 20:33:00,
2013-04-19 15:38:00,35.4,22.9,28.56,NW,306,7.6,13.2,60,0.00,,---,0.00,VWS V14.01,2013-04-19 20:38:00,
2013-04-19 15:43:00,36.1,22.4,28.56,West,259,10.5,10.5,57,0.00,,---,0.00,VWS V14.01,2013-04-19 20:43:00,
2013-04-19 15:48:00,36.7,22.9,28.56,NNW,333,13.2,15.0,57,0.00,,---,0.00,VWS V14.01,2013-04-19 20:48:00,
2013-04-19 15:53:00,36.7,22.9,28.56,NNW,334,13.2,13.2,57,0.00,,---,0.00,VWS V14.01,2013-04-19 20:53:00,
2013-04-19 15:58:00,35.8,22.0,28.56,NW,320,12.3,12.3,57,0.00,,---,0.00,VWS V14.01,2013-04-19 20:58:00,
2013-04-19 16:03:00,35.1,22.6,28.56,NW,315,5.8,5.8,60,0.00,,---,0.00,VWS V14.01,2013-04-19 21:03:00,
2013-04-19 16:08:00,35.4,22.9,28.56,NW,324,7.2,8.3,60,0.00,,---,0.00,VWS V14.01,2013-04-19 21:08:00,
2013-04-19 16:13:00,35.6,21.9,28.56,WNW,295,12.8,12.8,57,0.00,,---,0.00,VWS V14.01,2013-04-19 21:13:00,
2013-04-19 16:18:00,35.6,21.9,28.56,NNW,334,8.3,8.3,57,0.00,,---,0.00,VWS V14.01,2013-04-19 21:18:00,
2013-04-19 16:23:00,35.2,22.8,28.56,NNW,343,12.8,18.8,60,0.00,,---,0.00,VWS V14.01,2013-04-19 21:23:00,
2013-04-19 16:28:00,33.3,26.2,28.56,North,357,5.8,8.3,75,0.00,,---,0.00,VWS V14.01,2013-04-19 21:28:00,
2013-04-19 16:33:00,32.5,31.5,28.59,NNW,346,10.1,10.1,96,0.00,,---,0.00,VWS V14.01,2013-04-19 21:33:00,
2013-04-19 16:38:00,32.0,31.0,28.59,NNW,329,10.1,10.1,96,0.00,,---,0.00,VWS V14.01,2013-04-19 21:38:00,
2013-04-19 16:43:00,31.6,29.9,28.59,West,281,5.8,8.1,93,0.00,,---,0.00,VWS V14.01,2013-04-19 21:43:00,
2013-04-19 16:48:00,32.7,23.7,28.61,NNW,329,10.1,10.1,69,0.00,,---,0.00,VWS V14.01,2013-04-19 21:48:00,
2013-04-19 16:54:00,33.8,21.4,28.61,North,353,5.8,6.3,60,0.00,,---,0.00,VWS V14.01,2013-04-19 21:54:00,
2013-04-19 16:59:00,34.2,21.7,28.61,NNW,334,5.4,12.3,60,0.00,,---,0.00,VWS V14.01,2013-04-19 21:59:00,
2013-04-19 17:04:00,33.8,21.4,28.61,North,0,12.8,15.4,60,0.00,,---,0.00,VWS V14.01,2013-04-19 22:04:00,
2013-04-19 17:09:00,33.4,21.1,28.61,WNW,301,14.5,14.5,60,0.00,,---,0.00,VWS V14.01,2013-04-19 22:09:00,
2013-04-19 17:14:00,33.8,21.4,28.61,WSW,255,3.6,5.4,60,0.00,,---,0.00,VWS V14.01,2013-04-19 22:14:00,
2013-04-19 17:19:00,34.5,22.1,28.61,NW,324,6.3,9.6,60,0.00,,---,0.00,VWS V14.01,2013-04-19 22:19:00,
2013-04-19 17:24:00,34.9,22.4,28.61,North,353,7.6,7.6,60,0.00,,---,0.00,VWS V14.01,2013-04-19 22:24:00,
2013-04-19 17:29:00,34.2,17.9,28.61,NNW,342,11.4,15.4,51,0.00,,---,0.00,VWS V14.01,2013-04-19 22:29:00,
2013-04-19 17:34:00,33.1,20.7,28.64,North,0,3.6,13.2,60,0.00,,---,0.00,VWS V14.01,2013-04-19 22:34:00,
2013-04-19 17:39:00,32.4,20.0,28.64,NNW,331,8.1,8.1,60,0.00,,---,0.00,VWS V14.01,2013-04-19 22:39:00,
2013-04-19 17:44:00,31.8,22.8,28.64,NNW,344,6.7,6.7,69,0.00,,---,0.00,VWS V14.01,2013-04-19 22:44:00,
2013-04-19 17:49:00,31.8,22.8,28.64,WSW,237,8.7,8.7,69,0.00,,---,0.00,VWS V14.01,2013-04-19 22:49:00,
2013-04-19 17:54:00,32.5,20.2,28.64,NNW,337,8.7,8.7,60,0.00,,---,0.00,VWS V14.01,2013-04-19 22:54:00,
2013-04-19 17:59:00,32.4,20.0,28.64,NW,322,8.1,8.1,60,0.00,,---,0.00,VWS V14.01,2013-04-19 22:59:00,
2013-04-19 18:04:00,32.2,19.9,28.64,NNW,345,8.3,11.0,60,0.00,,---,0.00,VWS V14.01,2013-04-19 23:04:00,
2013-04-19 18:09:00,32.2,19.9,28.64,NNW,338,13.2,23.3,60,0.00,,---,0.00,VWS V14.01,2013-04-19 23:09:00,
2013-04-19 18:14:00,32.2,19.9,28.64,North,4,10.5,14.1,60,0.00,,---,0.00,VWS V14.01,2013-04-19 23:14:00,
2013-04-19 18:19:00,32.0,17.2,28.67,NW,320,15.0,15.0,54,0.00,,---,0.00,VWS V14.01,2013-04-19 23:19:00,
2013-04-19 18:24:00,32.4,20.0,28.67,WNW,291,11.4,13.2,60,0.00,,---,0.00,VWS V14.01,2013-04-19 23:24:00,
2013-04-19 18:29:00,32.4,17.6,28.67,WNW,300,12.3,12.3,54,0.00,,---,0.00,VWS V14.01,2013-04-19 23:29:00,
2013-04-19 18:34:00,32.2,17.4,28.67,NNW,345,13.6,13.6,54,0.00,,---,0.00,VWS V14.01,2013-04-19 23:34:00,
2013-04-19 18:39:00,32.2,17.4,28.67,NNW,331,6.3,12.8,54,0.00,,---,0.00,VWS V14.01,2013-04-19 23:39:00,
2013-04-19 18:44:00,32.2,17.4,28.67,North,1,6.3,6.3,54,0.00,,---,0.00,VWS V14.01,2013-04-19 23:44:00,
2013-04-19 18:49:00,32.2,17.4,28.70,NNW,336,8.3,8.3,54,0.00,,---,0.00,VWS V14.01,2013-04-19 23:49:00,
2013-04-19 18:54:00,32.0,17.2,28.70,NNW,334,13.2,13.2,54,0.00,,---,0.00,VWS V14.01,2013-04-19 23:54:00,
2013-04-19 18:59:00,31.8,17.1,28.70,NW,322,5.4,8.7,54,0.00,,---,0.00,VWS V14.01,2013-04-19 23:59:00,
2013-04-19 19:04:00,31.8,17.1,28.70,NNW,336,4.0,5.8,54,0.00,,---,0.00,VWS V14.01,2013-04-20 00:04:00,
2013-04-19 19:09:00,31.6,16.9,28.70,North,350,6.3,6.3,54,0.00,,---,0.00,VWS V14.01,2013-04-20 00:09:00,
2013-04-19 19:14:00,31.5,16.8,28.70,NNE,13,15.4,15.4,54,0.00,,---,0.00,VWS V14.01,2013-04-20 00:14:00,
2013-04-19 19:19:00,31.1,16.4,28.70,North,353,15.0,15.9,54,0.00,,---,0.00,VWS V14.01,2013-04-20 00:19:00,
2013-04-19 19:24:00,30.7,16.1,28.70,North,353,15.0,16.8,54,0.00,,---,0.00,VWS V14.01,2013-04-20 00:24:00,
2013-04-19 19:29:00,30.6,15.9,28.70,NNW,338,15.0,15.0,54,0.00,,---,0.00,VWS V14.01,2013-04-20 00:29:00,
2013-04-19 19:33:00,30.4,15.7,28.73,NNE,12,8.7,8.7,54,0.00,,---,0.00,VWS V14.01,2013-04-20 00:33:00,
2013-04-19 19:38:00,30.2,15.6,28.73,NNE,12,8.7,10.1,54,0.00,,---,0.00,VWS V14.01,2013-04-20 00:38:00,
2013-04-19 19:43:00,29.8,15.2,28.73,NNW,338,13.2,13.2,54,0.00,,---,0.00,VWS V14.01,2013-04-20 00:43:00,
2013-04-19 19:48:00,29.8,15.2,28.73,North,5,13.2,13.2,54,0.00,,---,0.00,VWS V14.01,2013-04-20 00:48:00,
2013-04-19 19:53:00,29.7,15.1,28.73,NNE,31,7.2,10.5,54,0.00,,---,0.00,VWS V14.01,2013-04-20 00:53:00,
2013-04-19 19:58:00,29.5,17.3,28.73,North,350,11.0,15.9,60,0.00,,---,0.00,VWS V14.01,2013-04-20 00:58:00,
2013-04-19 20:03:00,29.1,14.6,28.76,NE,36,15.0,15.0,54,0.00,,---,0.00,VWS V14.01,2013-04-20 01:03:00,
2013-04-19 20:08:00,28.8,14.2,28.76,North,353,11.0,11.0,54,0.00,,---,0.00,VWS V14.01,2013-04-20 01:08:00,
2013-04-19 20:13:00,28.6,14.1,28.76,North,350,8.1,8.7,54,0.00,,---,0.00,VWS V14.01,2013-04-20 01:13:00,
2013-04-19 20:18:00,28.4,13.9,28.76,NW,326,12.3,14.5,54,0.00,,---,0.00,VWS V14.01,2013-04-20 01:18:00,
2013-04-19 20:23:00,28.4,13.9,28.76,WNW,293,5.8,10.5,54,0.00,,---,0.00,VWS V14.01,2013-04-20 01:23:00,
2013-04-19 20:28:00,28.2,13.7,28.76,North,2,10.1,10.1,54,0.00,,---,0.00,VWS V14.01,2013-04-20 01:28:00,
2013-04-19 20:33:00,28.2,13.7,28.79,NW,318,5.4,10.1,54,0.00,,---,0.00,VWS V14.01,2013-04-20 01:33:00,
2013-04-19 20:38:00,28.0,13.6,28.79,NNW,327,5.4,10.5,54,0.00,,---,0.00,VWS V14.01,2013-04-20 01:38:00,
2013-04-19 20:43:00,28.0,13.6,28.79,North,357,10.1,15.4,54,0.00,,---,0.00,VWS V14.01,2013-04-20 01:43:00,
2013-04-19 20:48:00,28.0,13.6,28.79,NNW,330,13.2,13.2,54,0.00,,---,0.00,VWS V14.01,2013-04-20 01:48:00,
2013-04-19 20:53:00,28.0,13.6,28.79,WNW,285,8.3,13.2,54,0.00,,---,0.00,VWS V14.01,2013-04-20 01:53:00,
2013-04-19 20:58:00,27.9,13.4,28.79,NW,323,20.1,20.1,54,0.00,,---,0.00,VWS V14.01,2013-04-20 01:58:00,
2013-04-19 21:03:00,27.7,13.2,28.82,WNW,301,15.0,15.0,54,0.00,,---,0.00,VWS V14.01,2013-04-20 02:03:00,
2013-04-19 21:08:00,27.5,13.1,28.82,NW,312,5.8,10.5,54,0.00,,---,0.00,VWS V14.01,2013-04-20 02:08:00,
2013-04-19 21:13:00,27.5,13.1,28.82,NNE,15,14.5,14.5,54,0.00,,---,0.00,VWS V14.01,2013-04-20 02:13:00,
2013-04-19 21:18:00,27.3,12.9,28.82,North,0,4.5,8.1,54,0.00,,---,0.00,VWS V14.01,2013-04-20 02:18:00,
2013-04-19 21:23:00,27.1,12.7,28.82,North,3,7.2,10.1,54,0.00,,---,0.00,VWS V14.01,2013-04-20 02:23:00,
2013-04-19 21:28:00,27.0,12.6,28.82,NW,326,8.1,13.2,54,0.00,,---,0.00,VWS V14.01,2013-04-20 02:28:00,
2013-04-19 21:33:00,27.0,12.6,28.82,NNW,338,15.9,15.9,54,0.00,,---,0.00,VWS V14.01,2013-04-20 02:33:00,
2013-04-19 21:38:00,27.0,12.6,28.82,NW,326,11.0,13.6,54,0.00,,---,0.00,VWS V14.01,2013-04-20 02:38:00,
2013-04-19 21:43:00,26.8,12.4,28.82,North,0,8.1,8.1,54,0.00,,---,0.00,VWS V14.01,2013-04-20 02:43:00,
2013-04-19 21:48:00,26.8,12.4,28.85,North,3,6.3,7.6,54,0.00,,---,0.00,VWS V14.01,2013-04-20 02:48:00,
2013-04-19 21:53:00,26.6,13.4,28.85,NNE,27,22.4,22.4,57,0.00,,---,0.00,VWS V14.01,2013-04-20 02:53:00,
2013-04-19 21:58:00,26.6,13.4,28.85,North,0,8.3,10.1,57,0.00,,---,0.00,VWS V14.01,2013-04-20 02:58:00,
2013-04-19 22:03:00,26.4,13.3,28.85,North,8,10.5,10.5,57,0.00,,---,0.00,VWS V14.01,2013-04-20 03:03:00,
2013-04-19 22:08:00,26.4,13.3,28.85,NW,322,4.0,5.4,57,0.00,,---,0.00,VWS V14.01,2013-04-20 03:08:00,
2013-04-19 22:13:00,26.2,13.1,28.85,North,0,7.6,8.3,57,0.00,,---,0.00,VWS V14.01,2013-04-20 03:13:00,
2013-04-19 22:18:00,26.2,13.1,28.85,NNW,344,3.6,6.3,57,0.00,,---,0.00,VWS V14.01,2013-04-20 03:18:00,
2013-04-19 22:23:00,26.1,12.9,28.85,NW,321,5.4,7.6,57,0.00,,---,0.00,VWS V14.01,2013-04-20 03:23:00,
2013-04-19 22:28:00,26.1,15.2,28.85,NNW,336,8.7,8.7,63,0.00,,---,0.00,VWS V14.01,2013-04-20 03:28:00,
2013-04-19 22:33:00,26.1,15.2,28.85,NW,310,8.1,8.1,63,0.00,,---,0.00,VWS V14.01,2013-04-20 03:33:00,
2013-04-19 22:38:00,26.1,15.2,28.85,NNW,337,6.3,11.0,63,0.00,,---,0.00,VWS V14.01,2013-04-20 03:38:00,
2013-04-19 22:43:00,26.1,15.2,28.85,North,3,5.8,5.8,63,0.00,,---,0.00,VWS V14.01,2013-04-20 03:43:00,
2013-04-19 22:48:00,25.9,15.0,28.88,North,349,3.6,8.7,63,0.00,,---,0.00,VWS V14.01,2013-04-20 03:48:00,
2013-04-19 22:53:00,25.9,15.0,28.88,North,353,13.2,13.2,63,0.00,,---,0.00,VWS V14.01,2013-04-20 03:53:00,
2013-04-19 22:58:00,25.9,15.0,28.88,NW,309,8.3,8.3,63,0.00,,---,0.00,VWS V14.01,2013-04-20 03:58:00,
2013-04-19 23:01:00,25.9,15.0,28.88,WNW,291,11.0,11.0,63,0.00,,---,0.00,VWS V14.01,2013-04-20 04:01:00,
2013-04-19 23:06:00,25.7,14.9,28.88,North,0,3.1,3.1,63,0.00,,---,0.00,VWS V14.01,2013-04-20 04:06:00,
2013-04-19 23:11:00,25.7,14.9,28.88,NNW,335,8.3,8.3,63,0.00,,---,0.00,VWS V14.01,2013-04-20 04:11:00,
2013-04-19 23:16:00,25.7,14.9,28.88,North,350,8.1,8.1,63,0.00,,---,0.00,VWS V14.01,2013-04-20 04:16:00,
2013-04-19 23:21:00,25.7,14.9,28.88,North,0,5.4,11.0,63,0.00,,---,0.00,VWS V14.01,2013-04-20 04:21:00,
2013-04-19 23:26:00,25.5,14.7,28.88,NNW,343,4.9,4.9,63,0.00,,---,0.00,VWS V14.01,2013-04-20 04:26:00,
2013-04-19 23:31:00,25.3,14.5,28.88,North,1,12.3,12.3,63,0.00,,---,0.00,VWS V14.01,2013-04-20 04:31:00,
2013-04-19 23:36:00,25.3,14.5,28.88,North,0,6.7,7.2,63,0.00,,---,0.00,VWS V14.01,2013-04-20 04:36:00,
2013-04-19 23:41:00,25.3,14.5,28.88,North,5,8.7,8.7,63,0.00,,---,0.00,VWS V14.01,2013-04-20 04:41:00,
2013-04-19 23:46:00,25.3,12.2,28.91,NNW,338,5.8,5.8,57,0.00,,---,0.00,VWS V14.01,2013-04-20 04:46:00,
2013-04-19 23:51:00,25.2,14.4,28.91,North,6,4.0,4.0,63,0.00,,---,0.00,VWS V14.01,2013-04-20 04:51:00,
2013-04-19 23:56:00,25.2,14.4,28.91,NNW,329,5.4,5.4,63,0.00,,---,0.00,VWS V14.01,2013-04-20 04:56:00,